createdAt,value
2017-08-10T00:02:00.750Z,10.57
2017-08-10T00:04:29.017Z,11.03
2017-08-10T00:06:56.766Z,10.50
2017-08-10T00:09:24.331Z,9.77
2017-08-10T00:11:51.790Z,9.63
2017-08-10T00:14:19.266Z,10.43
2017-08-10T00:16:46.832Z,10.53
2017-08-10T00:19:15.089Z,12.27
2017-08-10T00:21:43.354Z,10.20
2017-08-10T00:24:11.815Z,9.47
2017-08-10T00:26:40.046Z,15.03
2017-08-10T00:29:07.613Z,14.93
2017-08-10T00:31:35.858Z,9.77
2017-08-10T00:34:03.417Z,9.00
2017-08-10T00:36:31.895Z,10.60
2017-08-10T00:38:59.447Z,9.57
2017-08-10T00:41:27.078Z,10.50
2017-08-10T00:43:55.541Z,10.50
2017-08-10T00:46:23.770Z,10.70
2017-08-10T00:48:51.246Z,10.30
2017-08-10T00:51:19.501Z,10.37
2017-08-10T00:53:47.763Z,10.37
2017-08-10T00:58:49.914Z,10.77
2017-08-10T01:01:18.274Z,9.60
2017-08-10T01:03:46.537Z,11.30
2017-08-10T01:06:14.801Z,10.17
2017-08-10T01:08:43.062Z,10.93
2017-08-10T01:11:11.522Z,10.20
2017-08-10T01:13:39.785Z,10.80
2017-08-10T01:16:08.017Z,14.53
2017-08-10T01:18:35.506Z,10.30
2017-08-10T01:21:02.995Z,11.17
2017-08-10T01:23:30.463Z,9.30
2017-08-10T01:25:58.830Z,10.47
2017-08-10T01:28:27.106Z,11.00
2017-08-10T01:30:54.634Z,11.47
2017-08-10T01:33:22.899Z,11.83
2017-08-10T01:35:51.135Z,11.10
2017-08-10T01:38:18.703Z,13.03
2017-08-10T01:40:47.077Z,14.13
2017-08-10T01:43:14.554Z,11.30
2017-08-10T01:45:42.050Z,14.83
2017-08-10T01:48:10.514Z,11.67
2017-08-10T01:50:38.774Z,11.97
2017-08-10T01:53:07.010Z,12.93
2017-08-10T01:55:34.577Z,13.30
2017-08-10T01:58:02.821Z,12.80
2017-08-10T02:00:30.292Z,15.23
2017-08-10T02:02:57.830Z,13.03
2017-08-10T02:05:25.310Z,15.17
2017-08-10T02:07:52.910Z,13.13
2017-08-10T02:10:21.147Z,12.70
2017-08-10T02:12:48.714Z,13.37
2017-08-10T02:15:17.177Z,16.27
2017-08-10T02:17:45.439Z,14.83
2017-08-10T02:20:13.699Z,13.07
2017-08-10T02:22:41.970Z,14.20
2017-08-10T02:25:09.504Z,13.17
2017-08-10T02:27:37.762Z,12.77
2017-08-10T02:30:06.023Z,13.30
2017-08-10T02:32:33.514Z,13.27
2017-08-10T02:35:00.994Z,14.13
2017-08-10T02:37:29.289Z,14.90
2017-08-10T02:39:56.767Z,17.20
2017-08-10T02:42:24.265Z,17.37
2017-08-10T02:44:52.614Z,13.53
2017-08-10T02:47:20.875Z,13.83
2017-08-10T02:49:48.350Z,15.03
2017-08-10T02:52:15.963Z,16.07
2017-08-10T02:54:44.222Z,16.87
2017-08-10T02:57:12.458Z,15.87
2017-08-10T02:59:40.026Z,16.00
2017-08-10T03:02:07.566Z,19.70
2017-08-10T03:04:35.797Z,16.70
2017-08-10T03:07:03.474Z,16.70
2017-08-10T03:09:30.964Z,20.73
2017-08-10T03:11:58.461Z,24.37
2017-08-10T03:14:26.741Z,17.40
2017-08-10T03:16:54.262Z,21.03
2017-08-10T03:19:22.507Z,21.80
2017-08-10T03:21:50.018Z,18.07
2017-08-10T03:24:17.506Z,18.00
2017-08-10T03:26:45.770Z,21.07
2017-08-10T03:29:13.310Z,18.43
2017-08-10T03:31:41.571Z,17.47
2017-08-10T03:34:09.810Z,16.03
2017-08-10T03:36:37.578Z,16.57
2017-08-10T03:39:05.842Z,17.20
2017-08-10T03:41:33.342Z,19.17
2017-08-10T03:44:00.836Z,16.00
2017-08-10T03:46:28.310Z,16.30
2017-08-10T03:48:55.917Z,16.80
2017-08-10T03:51:23.458Z,16.47
2017-08-10T03:53:50.934Z,20.43
2017-08-10T03:56:18.607Z,19.87
2017-08-10T03:58:46.077Z,15.43
2017-08-10T04:01:14.342Z,16.37
2017-08-10T04:03:42.605Z,16.23
2017-08-10T04:06:10.874Z,17.67
2017-08-10T04:08:38.409Z,16.60
2017-08-10T04:11:06.771Z,16.27
2017-08-10T04:13:35.034Z,17.23
2017-08-10T04:16:02.511Z,17.90
2017-08-10T04:18:30.026Z,18.17
2017-08-10T04:20:57.622Z,17.57
2017-08-10T04:23:25.107Z,18.90
2017-08-10T04:25:52.753Z,16.10
2017-08-10T04:28:21.010Z,17.23
2017-08-10T04:30:49.270Z,16.50
2017-08-10T04:33:17.629Z,19.80
2017-08-10T04:35:45.871Z,19.77
2017-08-10T04:38:13.351Z,17.63
2017-08-10T04:40:40.878Z,21.17
2017-08-10T04:43:09.133Z,20.83
2017-08-10T04:45:37.403Z,20.70
2017-08-10T04:48:05.042Z,19.73
2017-08-10T04:50:33.292Z,20.63
2017-08-10T04:53:01.525Z,23.60
2017-08-10T04:55:29.218Z,19.80
2017-08-10T04:57:56.727Z,18.93
2017-08-10T05:00:24.278Z,19.60
2017-08-10T05:02:51.773Z,24.50
2017-08-10T05:05:19.283Z,22.03
2017-08-10T05:07:47.543Z,18.80
2017-08-10T05:10:15.901Z,18.87
2017-08-10T05:12:44.164Z,21.03
2017-08-10T05:15:12.427Z,20.07
2017-08-10T05:17:39.911Z,20.57
2017-08-10T05:20:07.383Z,26.17
2017-08-10T05:22:34.873Z,21.97
2017-08-10T05:25:02.347Z,18.43
2017-08-10T05:27:29.835Z,16.60
2017-08-10T05:29:58.223Z,21.63
2017-08-10T05:32:25.712Z,21.73
2017-08-10T05:34:53.997Z,18.13
2017-08-10T05:37:22.270Z,17.30
2017-08-10T05:39:49.737Z,17.43
2017-08-10T05:42:17.216Z,19.30
2017-08-10T05:44:44.786Z,21.57
2017-08-10T05:47:13.018Z,18.70
2017-08-10T05:49:40.494Z,18.30
2017-08-10T05:52:08.850Z,16.13
2017-08-10T05:54:37.086Z,17.53
2017-08-10T05:57:04.556Z,17.17
2017-08-10T05:59:32.814Z,19.23
2017-08-10T06:02:01.098Z,16.20
2017-08-10T06:04:28.618Z,14.43
2017-08-10T06:06:56.878Z,15.97
2017-08-10T06:09:25.118Z,16.50
2017-08-10T06:11:52.683Z,17.40
2017-08-10T06:14:20.945Z,17.10
2017-08-10T06:16:49.182Z,17.50
2017-08-10T06:19:16.751Z,16.40
2017-08-10T06:21:44.291Z,15.40
2017-08-10T06:24:12.530Z,18.20
2017-08-10T06:26:39.994Z,14.87
2017-08-10T06:29:08.248Z,15.63
2017-08-10T06:31:36.519Z,20.67
2017-08-10T06:34:03.991Z,17.07
2017-08-10T06:36:31.496Z,17.50
2017-08-10T06:38:59.757Z,20.00
2017-08-10T06:41:28.123Z,19.50
2017-08-10T06:43:56.378Z,21.07
2017-08-10T06:46:24.638Z,21.60
2017-08-10T06:48:52.902Z,29.10
2017-08-10T06:51:21.167Z,22.73
2017-08-10T06:53:48.706Z,19.00
2017-08-10T06:56:17.165Z,20.80
2017-08-10T06:58:45.531Z,21.27
2017-08-10T07:01:13.771Z,22.73
2017-08-10T07:03:41.434Z,22.03
2017-08-10T07:06:09.699Z,18.90
2017-08-10T07:08:37.934Z,16.80
2017-08-10T07:11:05.422Z,22.63
2017-08-10T07:13:32.911Z,18.27
2017-08-10T07:16:00.382Z,17.97
2017-08-10T07:18:27.922Z,17.60
2017-08-10T07:20:55.472Z,20.03
2017-08-10T07:23:23.702Z,17.70
2017-08-10T07:25:51.205Z,18.93
2017-08-10T07:28:18.713Z,19.63
2017-08-10T07:30:46.978Z,19.37
2017-08-10T07:33:15.229Z,18.83
2017-08-10T07:35:43.464Z,20.40
2017-08-10T07:38:10.940Z,19.90
2017-08-10T07:40:39.302Z,20.60
2017-08-10T07:43:07.554Z,21.93
2017-08-10T07:45:35.852Z,18.17
2017-08-10T07:48:03.362Z,19.80
2017-08-10T07:50:31.627Z,20.63
2017-08-10T07:52:59.891Z,22.47
2017-08-10T07:55:27.487Z,23.67
2017-08-10T07:57:54.953Z,19.43
2017-08-10T08:00:22.515Z,24.23
2017-08-10T08:02:50.766Z,19.73
2017-08-10T08:05:19.002Z,20.27
2017-08-10T08:07:46.578Z,20.73
2017-08-10T08:10:15.003Z,19.77
2017-08-10T08:12:42.470Z,25.07
2017-08-10T08:15:10.010Z,18.47
2017-08-10T08:17:37.671Z,23.03
2017-08-10T08:20:05.914Z,19.40
2017-08-10T08:22:33.475Z,19.27
2017-08-10T08:25:01.838Z,19.03
2017-08-10T08:27:30.112Z,19.27
2017-08-10T08:29:57.752Z,18.00
2017-08-10T08:32:26.112Z,17.53
2017-08-10T08:34:53.658Z,17.17
2017-08-10T08:37:21.891Z,19.20
2017-08-10T08:39:49.366Z,22.10
2017-08-10T08:42:16.847Z,17.10
2017-08-10T08:44:44.439Z,19.10
2017-08-10T08:47:12.678Z,18.13
2017-08-10T08:49:40.143Z,18.90
2017-08-10T08:52:08.398Z,17.23
2017-08-10T08:54:36.659Z,20.33
2017-08-10T08:57:04.911Z,20.10
2017-08-10T08:59:33.291Z,16.90
2017-08-10T09:02:00.830Z,20.17
2017-08-10T09:04:28.298Z,18.03
2017-08-10T09:06:55.830Z,19.93
2017-08-10T09:09:24.066Z,20.07
2017-08-10T09:11:51.630Z,19.90
2017-08-10T09:14:19.990Z,17.83
2017-08-10T09:16:48.274Z,18.40
2017-08-10T09:19:15.754Z,20.90
2017-08-10T09:21:43.333Z,17.87
2017-08-10T09:24:11.589Z,19.40
2017-08-10T09:26:39.866Z,19.00
2017-08-10T09:29:07.375Z,18.77
2017-08-10T09:31:34.942Z,19.40
2017-08-10T09:34:03.202Z,17.20
2017-08-10T09:36:31.564Z,20.60
2017-08-10T09:38:59.807Z,22.70
2017-08-10T09:41:27.371Z,17.70
2017-08-10T09:43:54.906Z,17.20
2017-08-10T09:46:23.174Z,16.20
2017-08-10T09:48:50.670Z,16.60
2017-08-10T09:51:18.934Z,16.27
2017-08-10T09:53:47.194Z,16.13
2017-08-10T09:56:15.445Z,17.20
2017-08-10T09:58:43.714Z,15.63
2017-08-10T10:01:11.946Z,15.10
2017-08-10T10:03:40.338Z,16.30
2017-08-10T10:06:08.698Z,15.93
2017-08-10T10:08:36.963Z,16.40
2017-08-10T10:11:05.227Z,13.80
2017-08-10T10:13:33.582Z,13.70
2017-08-10T10:16:01.814Z,13.97
2017-08-10T10:18:29.290Z,13.90
2017-08-10T10:20:57.744Z,14.57
2017-08-10T10:23:26.034Z,15.23
2017-08-10T10:25:53.703Z,12.53
2017-08-10T10:28:22.072Z,12.30
2017-08-10T10:30:50.326Z,13.00
2017-08-10T10:33:18.586Z,12.07
2017-08-10T10:35:46.955Z,10.80
2017-08-10T10:38:15.211Z,10.07
2017-08-10T10:40:42.694Z,12.00
2017-08-10T10:43:10.240Z,11.60
2017-08-10T10:45:38.479Z,12.77
2017-08-10T10:48:05.947Z,11.77
2017-08-10T10:50:34.193Z,11.13
2017-08-10T10:53:01.662Z,9.37
2017-08-10T10:55:29.213Z,10.33
2017-08-10T10:57:57.450Z,10.80
2017-08-10T11:00:24.914Z,11.60
2017-08-10T11:02:53.173Z,13.17
2017-08-10T11:05:21.416Z,13.10
2017-08-10T11:07:48.982Z,13.43
2017-08-10T11:10:17.455Z,12.17
2017-08-10T11:12:45.691Z,14.57
2017-08-10T11:15:13.254Z,16.20
2017-08-10T11:17:41.719Z,14.37
2017-08-10T11:20:09.994Z,14.77
2017-08-10T11:22:37.542Z,14.70
2017-08-10T11:25:05.060Z,13.63
2017-08-10T11:27:33.314Z,13.13
2017-08-10T11:30:01.585Z,13.70
2017-08-10T11:32:29.124Z,13.10
2017-08-10T11:34:56.667Z,14.33
2017-08-10T11:37:24.928Z,14.10
2017-08-10T11:39:53.287Z,14.77
2017-08-10T11:42:21.531Z,16.50
2017-08-10T11:44:49.006Z,13.70
2017-08-10T11:47:16.494Z,17.13
2017-08-10T11:49:43.971Z,14.40
2017-08-10T11:52:11.443Z,13.33
2017-08-10T11:54:38.945Z,13.80
2017-08-10T11:57:07.355Z,15.07
2017-08-10T11:59:34.861Z,13.43
2017-08-10T12:02:02.378Z,14.67
2017-08-10T12:04:29.873Z,11.70
2017-08-10T12:06:58.260Z,13.53
2017-08-10T12:09:25.842Z,12.20
2017-08-10T12:11:55.007Z,11.17
2017-08-10T12:14:23.491Z,14.00
2017-08-10T12:16:51.722Z,9.63
2017-08-10T12:19:19.182Z,10.70
2017-08-10T12:21:47.447Z,9.60
2017-08-10T12:24:15.670Z,8.70
2017-08-10T12:26:43.146Z,7.87
2017-08-10T12:29:11.418Z,7.23
2017-08-10T12:31:39.665Z,7.23
2017-08-10T12:34:07.965Z,9.47
2017-08-10T12:36:35.478Z,7.77
2017-08-10T12:39:03.802Z,8.43
2017-08-10T12:41:31.391Z,8.00
2017-08-10T12:43:59.650Z,14.93
2017-08-10T12:46:27.909Z,6.90
2017-08-10T12:48:56.330Z,13.30
2017-08-10T12:51:23.834Z,8.10
2017-08-10T12:53:51.353Z,7.40
2017-08-10T12:56:19.628Z,8.63
2017-08-10T12:58:47.086Z,8.47
2017-08-10T13:01:14.551Z,7.27
2017-08-10T13:03:42.116Z,11.00
2017-08-10T13:06:10.341Z,9.60
2017-08-10T13:08:37.814Z,8.93
2017-08-10T13:11:06.291Z,7.60
2017-08-10T13:13:34.542Z,10.17
2017-08-10T13:16:02.775Z,9.40
2017-08-10T13:18:30.335Z,11.10
2017-08-10T13:20:58.606Z,9.80
2017-08-10T13:23:26.909Z,10.77
2017-08-10T13:25:55.174Z,11.27
2017-08-10T13:28:22.650Z,11.40
2017-08-10T13:30:50.159Z,14.93
2017-08-10T13:33:17.654Z,13.20
2017-08-10T13:35:45.886Z,12.10
2017-08-10T13:38:13.454Z,13.33
2017-08-10T13:40:41.018Z,12.73
2017-08-10T13:43:09.281Z,13.43
2017-08-10T13:45:37.554Z,14.27
2017-08-10T13:48:05.081Z,12.70
2017-08-10T13:50:33.341Z,22.77
2017-08-10T13:53:01.614Z,13.90
2017-08-10T13:55:29.146Z,12.93
2017-08-10T13:57:56.662Z,17.83
2017-08-10T14:00:24.930Z,12.30
2017-08-10T14:02:52.394Z,12.80
2017-08-10T14:05:19.908Z,15.13
2017-08-10T14:07:47.489Z,12.87
2017-08-10T14:10:15.730Z,11.27
2017-08-10T14:12:43.198Z,11.73
2017-08-10T14:15:10.776Z,11.30
2017-08-10T14:17:39.006Z,10.33
2017-08-10T14:20:06.475Z,10.33
2017-08-10T14:22:34.725Z,11.23
2017-08-10T14:25:02.957Z,12.33
2017-08-10T14:27:30.421Z,12.10
2017-08-10T14:29:58.690Z,9.77
2017-08-10T14:32:26.270Z,9.90
2017-08-10T14:34:53.739Z,10.53
2017-08-10T14:37:21.314Z,10.10
2017-08-10T14:39:49.534Z,9.67
2017-08-10T14:42:17.005Z,10.80
2017-08-10T14:44:44.502Z,8.47
2017-08-10T14:47:11.966Z,10.77
2017-08-10T14:49:40.195Z,7.70
2017-08-10T14:52:07.834Z,8.03
2017-08-10T14:54:35.299Z,9.80
2017-08-10T14:57:03.542Z,13.20
2017-08-10T14:59:31.110Z,18.07
2017-08-10T15:01:59.374Z,16.47
2017-08-10T15:04:27.619Z,22.17
2017-08-10T15:06:55.119Z,22.50
2017-08-10T15:09:22.593Z,23.33
2017-08-10T15:11:50.173Z,24.37
2017-08-10T15:14:17.742Z,26.63
2017-08-10T15:16:45.279Z,26.43
2017-08-10T15:19:13.510Z,26.10
2017-08-10T15:21:40.986Z,25.93
2017-08-10T15:24:08.456Z,26.67
2017-08-10T15:26:36.066Z,27.30
2017-08-10T15:29:04.315Z,25.83
2017-08-10T15:31:31.767Z,27.30
2017-08-10T15:34:00.046Z,26.73
2017-08-10T15:36:27.595Z,26.37
2017-08-10T15:38:55.066Z,27.47
2017-08-10T15:41:22.566Z,27.03
2017-08-10T15:43:50.125Z,25.80
2017-08-10T15:46:18.358Z,26.40
2017-08-10T15:48:45.861Z,32.33
2017-08-10T15:51:13.371Z,25.10
2017-08-10T15:53:41.601Z,27.53
2017-08-10T15:56:09.273Z,27.10
2017-08-10T15:58:36.796Z,26.67
2017-08-10T16:01:04.285Z,28.00
2017-08-10T16:03:32.769Z,26.77
2017-08-10T16:06:00.247Z,26.40
2017-08-10T16:08:27.727Z,26.00
2017-08-10T16:10:56.302Z,25.20
2017-08-10T16:13:24.568Z,26.40
2017-08-10T16:15:52.034Z,28.33
2017-08-10T16:18:19.983Z,29.77
2017-08-10T16:20:48.686Z,24.37
2017-08-10T16:23:16.258Z,29.87
2017-08-10T16:25:44.722Z,24.43
2017-08-10T16:28:12.219Z,28.20
2017-08-10T16:30:40.610Z,26.17
2017-08-10T16:33:08.150Z,26.97
2017-08-10T16:35:39.027Z,26.27
2017-08-10T16:38:06.495Z,28.47
2017-08-10T16:40:34.055Z,25.73
2017-08-10T16:43:02.295Z,29.03
2017-08-10T16:45:29.854Z,27.73
2017-08-10T16:47:58.111Z,29.73
2017-08-10T16:50:25.590Z,29.50
2017-08-10T16:52:53.171Z,29.20
2017-08-10T16:55:21.534Z,29.30
2017-08-10T16:57:49.026Z,32.07
2017-08-10T17:00:17.282Z,29.23
2017-08-10T17:02:45.718Z,34.17
2017-08-10T17:05:13.292Z,31.33
2017-08-10T17:07:41.560Z,34.77
2017-08-10T17:10:09.213Z,32.23
2017-08-10T17:12:36.691Z,31.47
2017-08-10T17:15:04.174Z,32.87
2017-08-10T17:17:32.651Z,30.27
2017-08-10T17:20:00.914Z,35.60
2017-08-10T17:22:29.170Z,32.80
2017-08-10T17:24:57.634Z,30.47
2017-08-10T17:27:25.196Z,31.43
2017-08-10T17:29:52.674Z,34.77
2017-08-10T17:32:20.362Z,32.97
2017-08-10T17:34:48.611Z,34.73
2017-08-10T17:37:16.459Z,30.20
2017-08-10T17:39:45.319Z,32.27
2017-08-10T17:42:13.573Z,32.87
2017-08-10T17:44:41.158Z,33.93
2017-08-10T17:47:08.671Z,34.20
2017-08-10T17:49:36.946Z,34.07
2017-08-10T17:52:05.202Z,32.83
2017-08-10T17:54:33.090Z,31.60
2017-08-10T17:57:00.561Z,32.17
2017-08-10T17:59:28.039Z,31.53
2017-08-10T18:01:56.355Z,34.60
2017-08-10T18:04:23.968Z,32.57
2017-08-10T18:06:51.629Z,30.30
2017-08-10T18:09:19.403Z,35.63
2017-08-10T18:11:47.050Z,30.30
2017-08-10T18:14:14.706Z,30.50
2017-08-10T18:16:42.295Z,27.67
2017-08-10T18:19:10.571Z,28.13
2017-08-10T18:21:38.133Z,32.20
2017-08-10T18:24:05.597Z,30.40
2017-08-10T18:26:33.094Z,30.37
2017-08-10T18:29:01.344Z,35.13
2017-08-10T18:31:29.615Z,37.90
2017-08-10T18:33:57.876Z,31.37
2017-08-10T18:36:26.230Z,37.47
2017-08-10T18:38:54.469Z,33.20
2017-08-10T18:41:21.946Z,33.63
2017-08-10T18:43:50.423Z,31.17
2017-08-10T18:46:18.658Z,32.33
2017-08-10T18:48:46.165Z,33.33
2017-08-10T18:51:13.662Z,35.17
2017-08-10T18:53:41.143Z,34.77
2017-08-10T18:56:09.374Z,33.63
2017-08-10T18:58:36.874Z,35.10
2017-08-10T19:01:04.344Z,38.43
2017-08-10T19:03:31.821Z,32.90
2017-08-10T19:05:59.314Z,33.77
2017-08-10T19:08:26.790Z,34.40
2017-08-10T19:10:54.277Z,43.63
2017-08-10T19:13:22.567Z,40.40
2017-08-10T19:15:50.032Z,37.53
2017-08-10T19:18:17.513Z,40.97
2017-08-10T19:20:44.997Z,37.70
2017-08-10T19:23:13.230Z,37.87
2017-08-10T19:25:40.737Z,39.33
2017-08-10T19:28:08.259Z,41.90
2017-08-10T19:30:35.754Z,46.33
2017-08-10T19:33:03.258Z,45.67
2017-08-10T19:35:30.747Z,58.20
2017-08-10T19:37:58.210Z,43.43
2017-08-10T19:40:27.543Z,45.83
2017-08-10T19:42:55.010Z,49.13
2017-08-10T19:45:22.528Z,48.30
2017-08-10T19:47:50.031Z,46.20
2017-08-10T19:50:18.281Z,47.57
2017-08-10T19:52:45.747Z,50.23
2017-08-10T19:55:13.246Z,52.47
2017-08-10T19:57:40.713Z,52.47
2017-08-10T20:00:08.956Z,56.87
2017-08-10T20:02:36.458Z,52.70
2017-08-10T20:05:03.927Z,51.07
2017-08-10T20:07:31.398Z,60.67
2017-08-10T20:09:59.023Z,53.50
2017-08-10T20:12:26.494Z,61.77
2017-08-10T20:14:54.730Z,60.73
2017-08-10T20:17:22.217Z,62.47
2017-08-10T20:19:49.682Z,58.70
2017-08-10T20:22:17.150Z,56.73
2017-08-10T20:24:44.638Z,65.60
2017-08-10T20:27:12.874Z,54.73
2017-08-10T20:29:40.337Z,62.47
2017-08-10T20:32:08.638Z,60.93
2017-08-10T20:34:36.114Z,61.07
2017-08-10T20:37:03.594Z,52.40
2017-08-10T20:39:31.327Z,51.17
2017-08-10T20:41:59.562Z,55.70
2017-08-10T20:44:27.043Z,48.80
2017-08-10T20:46:54.874Z,47.33
2017-08-10T20:49:23.110Z,51.27
2017-08-10T20:51:50.586Z,55.70
2017-08-10T20:54:18.258Z,50.30
2017-08-10T20:56:45.739Z,48.27
2017-08-10T20:59:13.207Z,55.50
2017-08-10T21:01:41.675Z,57.67
2017-08-10T21:04:09.911Z,55.77
2017-08-10T21:06:37.378Z,53.30
2017-08-10T21:09:05.622Z,62.60
2017-08-10T21:11:33.096Z,52.07
2017-08-10T21:14:00.562Z,52.23
2017-08-10T21:16:28.038Z,53.07
2017-08-10T21:18:55.502Z,61.67
2017-08-10T21:21:23.756Z,58.13
2017-08-10T21:23:51.986Z,56.53
2017-08-10T21:26:19.475Z,61.90
2017-08-10T21:28:47.002Z,60.43
2017-08-10T21:31:15.242Z,58.63
2017-08-10T21:33:42.709Z,57.10
2017-08-10T21:36:10.958Z,50.13
2017-08-10T21:38:38.422Z,53.23
2017-08-10T21:41:05.894Z,56.73
2017-08-10T21:43:33.610Z,52.53
2017-08-10T21:46:01.074Z,54.43
2017-08-10T21:48:28.541Z,60.27
2017-08-10T21:50:56.027Z,56.23
2017-08-10T21:53:23.502Z,55.97
2017-08-10T21:55:50.979Z,59.57
2017-08-10T21:58:18.466Z,60.13
2017-08-10T22:00:46.047Z,55.80
2017-08-10T22:03:13.516Z,61.87
2017-08-10T22:05:40.997Z,61.70
2017-08-10T22:08:08.468Z,61.30
2017-08-10T22:10:35.934Z,63.27
2017-08-10T22:13:03.426Z,61.47
2017-08-10T22:15:30.898Z,63.80
2017-08-10T22:17:58.362Z,54.63
2017-08-10T22:20:26.029Z,53.60
2017-08-10T22:22:54.266Z,48.60
2017-08-10T22:25:21.745Z,47.43
2017-08-10T22:27:49.226Z,48.30
2017-08-10T22:30:16.726Z,45.30
2017-08-10T22:32:44.382Z,43.50
2017-08-10T22:35:11.850Z,46.27
2017-08-10T22:37:39.326Z,45.00
2017-08-10T22:40:06.827Z,45.90
2017-08-10T22:42:34.299Z,41.57
2017-08-10T22:45:01.773Z,46.20
2017-08-10T22:47:30.026Z,44.67
2017-08-10T22:49:57.502Z,42.97
2017-08-10T22:52:24.974Z,43.17
2017-08-10T22:54:52.626Z,36.20
2017-08-10T22:57:20.106Z,32.03
2017-08-10T22:59:47.585Z,36.27
2017-08-10T23:02:15.071Z,37.83
2017-08-10T23:04:42.546Z,38.17
2017-08-10T23:07:10.017Z,37.90
2017-08-10T23:09:37.722Z,38.33
2017-08-10T23:12:05.955Z,35.33
2017-08-10T23:14:33.421Z,38.03
2017-08-10T23:17:01.674Z,37.03
2017-08-10T23:19:29.914Z,39.33
2017-08-10T23:21:57.381Z,44.23
2017-08-10T23:24:25.646Z,44.93
2017-08-10T23:26:53.882Z,37.80
2017-08-10T23:29:21.354Z,34.63
2017-08-10T23:31:48.847Z,43.90
2017-08-10T23:34:16.335Z,33.43
2017-08-10T23:36:44.578Z,35.10
2017-08-10T23:39:12.206Z,29.60
2017-08-10T23:41:39.679Z,29.00
2017-08-10T23:44:07.914Z,23.17
2017-08-10T23:46:35.407Z,27.30
2017-08-10T23:49:02.877Z,30.53
2017-08-10T23:51:30.374Z,27.63
2017-08-10T23:53:57.842Z,26.60
2017-08-10T23:56:25.323Z,22.30
2017-08-10T23:58:52.918Z,28.30
